Munster, Indiana
Current Conditions -  °F | °C
As of 2:55 AM on Saturday 29 Nov 2014 (Local Time) from KIGQ Reporting Station
Clear Clear  
Wind Chill: 24°   Ceiling: Unl
Heat Index: 33°   Visibility: 10mi
Dew Point: 27°   Wind: 13mph
Humidity: 80%   Direction: 160°SSE
Pressure: 29.83"   Gusts: 18mph
Location:  41.56°N, 87.5°W
Report Text: KIGQ 290855Z AUTO 16011G16KT 10SM CLR 01/M03 A2983 RMK AO2 T00051026
Loading
Personal Weather Stations






























Interactive Weather Map New forecast layout! Learn more

10-Day Weather Forecast

Advertisements
Track Severe Weather on mobile